sensor_id;sensor_type;location;lat;lon;timestamp;P1;durP1;ratioP1;P2;durP2;ratioP2
14686;SDS011;7431;49.440;11.084;2023-08-24T00:02:05;5.25;;;4.30;;
14686;SDS011;7431;49.440;11.084;2023-08-24T00:04:31;5.78;;;4.40;;
14686;SDS011;7431;49.440;11.084;2023-08-24T00:06:57;6.93;;;4.60;;
14686;SDS011;7431;49.440;11.084;2023-08-24T00:09:24;4.15;;;3.70;;
14686;SDS011;7431;49.440;11.084;2023-08-24T00:11:50;5.57;;;4.40;;
14686;SDS011;7431;49.440;11.084;2023-08-24T00:14:16;4.95;;;4.43;;
14686;SDS011;7431;49.440;11.084;2023-08-24T00:16:42;4.30;;;3.90;;
14686;SDS011;7431;49.440;11.084;2023-08-24T00:19:08;4.80;;;3.95;;
14686;SDS011;7431;49.440;11.084;2023-08-24T00:21:34;5.45;;;4.50;;
14686;SDS011;7431;49.440;11.084;2023-08-24T00:24:00;7.05;;;4.72;;
14686;SDS011;7431;49.440;11.084;2023-08-24T00:26:26;6.32;;;4.95;;
14686;SDS011;7431;49.440;11.084;2023-08-24T00:28:52;6.55;;;4.63;;
14686;SDS011;7431;49.440;11.084;2023-08-24T00:31:18;5.07;;;4.55;;
14686;SDS011;7431;49.440;11.084;2023-08-24T00:33:44;6.97;;;4.63;;
14686;SDS011;7431;49.440;11.084;2023-08-24T00:36:10;4.97;;;4.57;;
14686;SDS011;7431;49.440;11.084;2023-08-24T00:38:36;5.03;;;4.50;;
14686;SDS011;7431;49.440;11.084;2023-08-24T00:41:02;6.25;;;4.40;;
14686;SDS011;7431;49.440;11.084;2023-08-24T00:43:28;4.72;;;4.28;;
14686;SDS011;7431;49.440;11.084;2023-08-24T00:45:59;8.07;;;4.47;;
14686;SDS011;7431;49.440;11.084;2023-08-24T00:48:25;9.65;;;4.40;;
14686;SDS011;7431;49.440;11.084;2023-08-24T00:50:54;5.03;;;4.10;;
14686;SDS011;7431;49.440;11.084;2023-08-24T00:53:20;4.90;;;4.50;;
14686;SDS011;7431;49.440;11.084;2023-08-24T00:55:46;4.57;;;3.92;;
14686;SDS011;7431;49.440;11.084;2023-08-24T00:58:13;4.50;;;3.95;;
14686;SDS011;7431;49.440;11.084;2023-08-24T01:00:39;5.00;;;4.60;;
14686;SDS011;7431;49.440;11.084;2023-08-24T01:03:05;4.85;;;4.40;;
14686;SDS011;7431;49.440;11.084;2023-08-24T01:05:31;4.68;;;4.28;;
14686;SDS011;7431;49.440;11.084;2023-08-24T01:07:57;5.30;;;4.57;;
14686;SDS011;7431;49.440;11.084;2023-08-24T01:10:23;5.38;;;4.57;;
14686;SDS011;7431;49.440;11.084;2023-08-24T01:13:00;4.68;;;4.22;;
14686;SDS011;7431;49.440;11.084;2023-08-24T01:15:48;4.38;;;3.97;;
14686;SDS011;7431;49.440;11.084;2023-08-24T01:18:17;4.53;;;4.00;;
14686;SDS011;7431;49.440;11.084;2023-08-24T01:20:45;4.43;;;4.03;;
14686;SDS011;7431;49.440;11.084;2023-08-24T01:23:15;5.57;;;4.38;;
14686;SDS011;7431;49.440;11.084;2023-08-24T01:25:54;5.57;;;4.50;;
14686;SDS011;7431;49.440;11.084;2023-08-24T01:28:21;4.88;;;4.40;;
14686;SDS011;7431;49.440;11.084;2023-08-24T01:30:47;4.30;;;3.95;;
14686;SDS011;7431;49.440;11.084;2023-08-24T01:33:13;5.03;;;4.20;;
14686;SDS011;7431;49.440;11.084;2023-08-24T01:35:40;4.43;;;4.03;;
14686;SDS011;7431;49.440;11.084;2023-08-24T01:38:06;4.85;;;4.22;;
14686;SDS011;7431;49.440;11.084;2023-08-24T01:40:42;4.30;;;3.90;;
14686;SDS011;7431;49.440;11.084;2023-08-24T01:43:10;5.75;;;4.20;;
14686;SDS011;7431;49.440;11.084;2023-08-24T01:45:38;5.35;;;4.55;;
14686;SDS011;7431;49.440;11.084;2023-08-24T01:48:06;6.18;;;4.45;;
14686;SDS011;7431;49.440;11.084;2023-08-24T01:50:34;4.47;;;4.07;;
14686;SDS011;7431;49.440;11.084;2023-08-24T01:53:01;4.82;;;4.43;;
14686;SDS011;7431;49.440;11.084;2023-08-24T01:55:28;4.40;;;4.00;;
14686;SDS011;7431;49.440;11.084;2023-08-24T01:57:55;5.13;;;4.57;;
14686;SDS011;7431;49.440;11.084;2023-08-24T02:00:21;4.90;;;4.40;;
14686;SDS011;7431;49.440;11.084;2023-08-24T02:02:47;5.30;;;4.85;;
14686;SDS011;7431;49.440;11.084;2023-08-24T02:05:13;5.95;;;5.03;;
14686;SDS011;7431;49.440;11.084;2023-08-24T02:07:39;5.47;;;5.07;;
14686;SDS011;7431;49.440;11.084;2023-08-24T02:10:06;6.55;;;5.47;;
14686;SDS011;7431;49.440;11.084;2023-08-24T02:12:32;5.60;;;5.10;;
14686;SDS011;7431;49.440;11.084;2023-08-24T02:14:58;5.90;;;5.35;;
14686;SDS011;7431;49.440;11.084;2023-08-24T02:17:25;6.82;;;5.88;;
14686;SDS011;7431;49.440;11.084;2023-08-24T02:19:51;6.80;;;6.20;;
14686;SDS011;7431;49.440;11.084;2023-08-24T02:22:17;6.53;;;5.78;;
14686;SDS011;7431;49.440;11.084;2023-08-24T02:24:43;5.57;;;5.07;;
14686;SDS011;7431;49.440;11.084;2023-08-24T02:27:09;6.03;;;5.53;;
14686;SDS011;7431;49.440;11.084;2023-08-24T02:29:35;5.60;;;5.10;;
14686;SDS011;7431;49.440;11.084;2023-08-24T02:32:03;6.47;;;5.35;;
14686;SDS011;7431;49.440;11.084;2023-08-24T02:34:29;5.63;;;4.90;;
14686;SDS011;7431;49.440;11.084;2023-08-24T02:36:56;6.50;;;4.50;;
14686;SDS011;7431;49.440;11.084;2023-08-24T02:39:22;5.18;;;4.65;;
14686;SDS011;7431;49.440;11.084;2023-08-24T02:41:51;5.15;;;4.75;;
14686;SDS011;7431;49.440;11.084;2023-08-24T02:44:17;5.55;;;5.05;;
14686;SDS011;7431;49.440;11.084;2023-08-24T02:46:47;6.25;;;5.10;;
14686;SDS011;7431;49.440;11.084;2023-08-24T02:49:14;6.85;;;5.43;;
14686;SDS011;7431;49.440;11.084;2023-08-24T02:51:40;6.55;;;5.13;;
14686;SDS011;7431;49.440;11.084;2023-08-24T02:54:14;7.25;;;5.20;;
14686;SDS011;7431;49.440;11.084;2023-08-24T02:56:42;9.35;;;5.05;;
14686;SDS011;7431;49.440;11.084;2023-08-24T02:59:08;9.48;;;6.28;;
14686;SDS011;7431;49.440;11.084;2023-08-24T03:01:34;8.07;;;6.68;;
14686;SDS011;7431;49.440;11.084;2023-08-24T03:04:03;8.63;;;6.53;;
14686;SDS011;7431;49.440;11.084;2023-08-24T03:06:30;6.90;;;6.18;;
14686;SDS011;7431;49.440;11.084;2023-08-24T03:08:56;6.93;;;6.18;;
14686;SDS011;7431;49.440;11.084;2023-08-24T03:11:22;8.88;;;7.97;;
14686;SDS011;7431;49.440;11.084;2023-08-24T03:13:51;8.25;;;7.45;;
14686;SDS011;7431;49.440;11.084;2023-08-24T03:16:17;5.13;;;4.72;;
14686;SDS011;7431;49.440;11.084;2023-08-24T03:18:45;6.03;;;4.32;;
14686;SDS011;7431;49.440;11.084;2023-08-24T03:21:14;7.18;;;4.63;;
14686;SDS011;7431;49.440;11.084;2023-08-24T03:23:42;4.75;;;4.28;;
14686;SDS011;7431;49.440;11.084;2023-08-24T03:26:08;5.88;;;4.50;;
14686;SDS011;7431;49.440;11.084;2023-08-24T03:28:37;5.22;;;4.53;;
14686;SDS011;7431;49.440;11.084;2023-08-24T03:31:03;4.72;;;4.20;;
14686;SDS011;7431;49.440;11.084;2023-08-24T03:33:29;4.70;;;4.30;;
14686;SDS011;7431;49.440;11.084;2023-08-24T03:35:55;4.90;;;4.50;;
14686;SDS011;7431;49.440;11.084;2023-08-24T03:38:21;5.43;;;5.00;;
14686;SDS011;7431;49.440;11.084;2023-08-24T03:40:47;4.50;;;4.10;;
14686;SDS011;7431;49.440;11.084;2023-08-24T03:43:13;5.70;;;4.65;;
14686;SDS011;7431;49.440;11.084;2023-08-24T03:45:41;6.80;;;4.53;;
14686;SDS011;7431;49.440;11.084;2023-08-24T03:48:08;5.68;;;5.18;;
14686;SDS011;7431;49.440;11.084;2023-08-24T03:50:34;6.03;;;5.30;;
14686;SDS011;7431;49.440;11.084;2023-08-24T03:53:00;5.68;;;5.15;;
14686;SDS011;7431;49.440;11.084;2023-08-24T03:55:26;9.38;;;5.28;;
14686;SDS011;7431;49.440;11.084;2023-08-24T03:57:52;6.90;;;5.30;;
14686;SDS011;7431;49.440;11.084;2023-08-24T04:00:19;7.68;;;4.95;;
14686;SDS011;7431;49.440;11.084;2023-08-24T04:02:45;6.93;;;4.88;;
14686;SDS011;7431;49.440;11.084;2023-08-24T04:05:11;5.32;;;4.82;;
14686;SDS011;7431;49.440;11.084;2023-08-24T04:07:37;6.22;;;4.78;;
14686;SDS011;7431;49.440;11.084;2023-08-24T04:10:04;5.78;;;5.00;;
14686;SDS011;7431;49.440;11.084;2023-08-24T04:12:31;5.32;;;4.82;;
14686;SDS011;7431;49.440;11.084;2023-08-24T04:14:57;6.15;;;5.00;;
14686;SDS011;7431;49.440;11.084;2023-08-24T04:17:24;5.25;;;4.85;;
14686;SDS011;7431;49.440;11.084;2023-08-24T04:19:50;5.57;;;5.07;;
14686;SDS011;7431;49.440;11.084;2023-08-24T04:22:16;6.20;;;4.68;;
14686;SDS011;7431;49.440;11.084;2023-08-24T04:24:42;4.57;;;4.18;;
14686;SDS011;7431;49.440;11.084;2023-08-24T04:27:08;7.35;;;5.25;;
14686;SDS011;7431;49.440;11.084;2023-08-24T04:29:34;5.70;;;5.20;;
14686;SDS011;7431;49.440;11.084;2023-08-24T04:32:00;5.35;;;4.85;;
14686;SDS011;7431;49.440;11.084;2023-08-24T04:34:26;6.85;;;4.97;;
14686;SDS011;7431;49.440;11.084;2023-08-24T04:36:52;6.40;;;5.00;;
14686;SDS011;7431;49.440;11.084;2023-08-24T04:39:19;5.80;;;5.13;;
14686;SDS011;7431;49.440;11.084;2023-08-24T04:41:45;7.88;;;4.95;;
14686;SDS011;7431;49.440;11.084;2023-08-24T04:44:11;5.88;;;5.25;;
14686;SDS011;7431;49.440;11.084;2023-08-24T04:46:37;6.40;;;5.30;;
14686;SDS011;7431;49.440;11.084;2023-08-24T04:49:03;5.60;;;5.00;;
14686;SDS011;7431;49.440;11.084;2023-08-24T04:51:29;6.78;;;4.93;;
14686;SDS011;7431;49.440;11.084;2023-08-24T04:53:55;7.55;;;5.30;;
14686;SDS011;7431;49.440;11.084;2023-08-24T04:56:21;5.22;;;4.72;;
14686;SDS011;7431;49.440;11.084;2023-08-24T04:58:54;5.82;;;5.30;;
14686;SDS011;7431;49.440;11.084;2023-08-24T05:01:21;6.80;;;5.07;;
14686;SDS011;7431;49.440;11.084;2023-08-24T05:03:47;5.55;;;5.05;;
14686;SDS011;7431;49.440;11.084;2023-08-24T05:06:13;6.25;;;5.63;;
14686;SDS011;7431;49.440;11.084;2023-08-24T05:08:39;6.97;;;5.30;;
14686;SDS011;7431;49.440;11.084;2023-08-24T05:11:12;5.78;;;4.97;;
14686;SDS011;7431;49.440;11.084;2023-08-24T05:13:39;5.88;;;4.63;;
14686;SDS011;7431;49.440;11.084;2023-08-24T05:16:05;5.57;;;4.90;;
14686;SDS011;7431;49.440;11.084;2023-08-24T05:18:31;5.13;;;4.63;;
14686;SDS011;7431;49.440;11.084;2023-08-24T05:20:57;4.20;;;3.80;;
14686;SDS011;7431;49.440;11.084;2023-08-24T05:23:23;4.38;;;3.97;;
14686;SDS011;7431;49.440;11.084;2023-08-24T05:25:49;6.70;;;4.60;;
14686;SDS011;7431;49.440;11.084;2023-08-24T05:28:15;5.53;;;4.00;;
14686;SDS011;7431;49.440;11.084;2023-08-24T05:30:40;5.15;;;3.78;;
14686;SDS011;7431;49.440;11.084;2023-08-24T05:33:07;4.30;;;3.88;;
14686;SDS011;7431;49.440;11.084;2023-08-24T05:35:33;5.78;;;3.83;;
14686;SDS011;7431;49.440;11.084;2023-08-24T05:37:59;4.32;;;3.97;;
14686;SDS011;7431;49.440;11.084;2023-08-24T05:40:25;4.30;;;3.90;;
14686;SDS011;7431;49.440;11.084;2023-08-24T05:42:51;4.30;;;3.90;;
14686;SDS011;7431;49.440;11.084;2023-08-24T05:45:18;4.65;;;4.25;;
14686;SDS011;7431;49.440;11.084;2023-08-24T05:47:44;3.92;;;3.63;;
14686;SDS011;7431;49.440;11.084;2023-08-24T05:50:10;7.93;;;3.92;;
14686;SDS011;7431;49.440;11.084;2023-08-24T05:52:37;4.10;;;3.70;;
14686;SDS011;7431;49.440;11.084;2023-08-24T05:55:03;5.72;;;4.00;;
14686;SDS011;7431;49.440;11.084;2023-08-24T05:57:29;5.70;;;4.25;;
14686;SDS011;7431;49.440;11.084;2023-08-24T05:59:55;4.13;;;3.72;;
14686;SDS011;7431;49.440;11.084;2023-08-24T06:02:21;4.90;;;3.60;;
14686;SDS011;7431;49.440;11.084;2023-08-24T06:04:47;4.22;;;3.63;;
14686;SDS011;7431;49.440;11.084;2023-08-24T06:07:15;3.83;;;3.35;;
14686;SDS011;7431;49.440;11.084;2023-08-24T06:09:41;4.00;;;3.63;;
14686;SDS011;7431;49.440;11.084;2023-08-24T06:12:07;8.85;;;4.05;;
14686;SDS011;7431;49.440;11.084;2023-08-24T06:14:33;4.43;;;4.03;;
14686;SDS011;7431;49.440;11.084;2023-08-24T06:16:59;5.25;;;4.00;;
14686;SDS011;7431;49.440;11.084;2023-08-24T06:19:25;4.90;;;4.40;;
14686;SDS011;7431;49.440;11.084;2023-08-24T06:21:51;8.40;;;4.28;;
14686;SDS011;7431;49.440;11.084;2023-08-24T06:24:17;9.18;;;4.45;;
14686;SDS011;7431;49.440;11.084;2023-08-24T06:26:43;8.20;;;4.70;;
14686;SDS011;7431;49.440;11.084;2023-08-24T06:29:09;4.95;;;4.40;;
14686;SDS011;7431;49.440;11.084;2023-08-24T06:31:35;7.25;;;4.63;;
14686;SDS011;7431;49.440;11.084;2023-08-24T06:34:01;4.95;;;4.45;;
14686;SDS011;7431;49.440;11.084;2023-08-24T06:36:27;5.20;;;4.53;;
14686;SDS011;7431;49.440;11.084;2023-08-24T06:38:54;5.05;;;4.57;;
14686;SDS011;7431;49.440;11.084;2023-08-24T06:41:20;8.07;;;4.53;;
14686;SDS011;7431;49.440;11.084;2023-08-24T06:43:46;7.35;;;4.65;;
14686;SDS011;7431;49.440;11.084;2023-08-24T06:46:12;4.70;;;4.30;;
14686;SDS011;7431;49.440;11.084;2023-08-24T06:48:38;6.07;;;4.97;;
14686;SDS011;7431;49.440;11.084;2023-08-24T06:51:06;5.57;;;4.50;;
14686;SDS011;7431;49.440;11.084;2023-08-24T06:53:33;7.63;;;4.63;;
14686;SDS011;7431;49.440;11.084;2023-08-24T06:55:59;4.97;;;4.07;;
14686;SDS011;7431;49.440;11.084;2023-08-24T06:58:25;5.30;;;4.50;;
14686;SDS011;7431;49.440;11.084;2023-08-24T07:00:51;5.80;;;4.50;;
14686;SDS011;7431;49.440;11.084;2023-08-24T07:03:17;5.32;;;4.82;;
14686;SDS011;7431;49.440;11.084;2023-08-24T07:05:44;7.93;;;4.53;;
14686;SDS011;7431;49.440;11.084;2023-08-24T07:08:10;8.18;;;4.57;;
14686;SDS011;7431;49.440;11.084;2023-08-24T07:10:36;5.57;;;4.07;;
14686;SDS011;7431;49.440;11.084;2023-08-24T07:13:02;6.75;;;4.28;;
14686;SDS011;7431;49.440;11.084;2023-08-24T07:15:28;4.30;;;3.90;;
14686;SDS011;7431;49.440;11.084;2023-08-24T07:17:54;5.03;;;4.15;;
14686;SDS011;7431;49.440;11.084;2023-08-24T07:20:20;4.72;;;4.32;;
14686;SDS011;7431;49.440;11.084;2023-08-24T07:22:46;5.45;;;4.53;;
14686;SDS011;7431;49.440;11.084;2023-08-24T07:25:13;4.93;;;4.50;;
14686;SDS011;7431;49.440;11.084;2023-08-24T07:27:39;4.57;;;4.18;;
14686;SDS011;7431;49.440;11.084;2023-08-24T07:30:06;4.53;;;4.10;;
14686;SDS011;7431;49.440;11.084;2023-08-24T07:32:32;6.15;;;4.57;;
14686;SDS011;7431;49.440;11.084;2023-08-24T07:34:58;5.25;;;4.40;;
14686;SDS011;7431;49.440;11.084;2023-08-24T07:37:25;6.15;;;4.10;;
14686;SDS011;7431;49.440;11.084;2023-08-24T07:39:51;8.18;;;4.10;;
14686;SDS011;7431;49.440;11.084;2023-08-24T07:42:19;7.57;;;4.30;;
14686;SDS011;7431;49.440;11.084;2023-08-24T07:44:46;6.75;;;4.00;;
14686;SDS011;7431;49.440;11.084;2023-08-24T07:47:13;6.80;;;4.60;;
14686;SDS011;7431;49.440;11.084;2023-08-24T07:49:39;5.20;;;4.60;;
14686;SDS011;7431;49.440;11.084;2023-08-24T07:52:11;5.63;;;4.45;;
14686;SDS011;7431;49.440;11.084;2023-08-24T07:54:37;6.57;;;4.68;;
14686;SDS011;7431;49.440;11.084;2023-08-24T07:57:04;4.88;;;4.45;;
14686;SDS011;7431;49.440;11.084;2023-08-24T07:59:31;7.35;;;3.85;;
14686;SDS011;7431;49.440;11.084;2023-08-24T08:01:57;4.88;;;4.40;;
14686;SDS011;7431;49.440;11.084;2023-08-24T08:04:23;9.05;;;4.55;;
14686;SDS011;7431;49.440;11.084;2023-08-24T08:06:49;5.43;;;4.30;;
14686;SDS011;7431;49.440;11.084;2023-08-24T08:09:15;4.53;;;3.65;;
14686;SDS011;7431;49.440;11.084;2023-08-24T08:11:41;7.03;;;3.90;;
14686;SDS011;7431;49.440;11.084;2023-08-24T08:14:08;3.78;;;3.28;;
14686;SDS011;7431;49.440;11.084;2023-08-24T08:16:34;4.15;;;3.60;;
14686;SDS011;7431;49.440;11.084;2023-08-24T08:19:01;6.03;;;3.70;;
14686;SDS011;7431;49.440;11.084;2023-08-24T08:21:27;4.85;;;3.47;;
14686;SDS011;7431;49.440;11.084;2023-08-24T08:23:54;5.85;;;3.47;;
14686;SDS011;7431;49.440;11.084;2023-08-24T08:26:20;5.30;;;3.45;;
14686;SDS011;7431;49.440;11.084;2023-08-24T08:28:46;4.03;;;2.90;;
14686;SDS011;7431;49.440;11.084;2023-08-24T08:31:12;3.28;;;2.80;;
14686;SDS011;7431;49.440;11.084;2023-08-24T08:33:38;3.05;;;2.85;;
14686;SDS011;7431;49.440;11.084;2023-08-24T08:36:04;3.05;;;2.72;;
14686;SDS011;7431;49.440;11.084;2023-08-24T08:38:30;3.20;;;2.83;;
14686;SDS011;7431;49.440;11.084;2023-08-24T08:40:57;3.92;;;3.08;;
14686;SDS011;7431;49.440;11.084;2023-08-24T08:43:27;4.28;;;2.60;;
14686;SDS011;7431;49.440;11.084;2023-08-24T08:45:53;2.92;;;2.67;;
14686;SDS011;7431;49.440;11.084;2023-08-24T08:48:20;3.50;;;2.53;;
14686;SDS011;7431;49.440;11.084;2023-08-24T08:50:50;5.68;;;2.40;;
14686;SDS011;7431;49.440;11.084;2023-08-24T08:53:17;4.68;;;2.65;;
14686;SDS011;7431;49.440;11.084;2023-08-24T08:55:44;3.25;;;2.35;;
14686;SDS011;7431;49.440;11.084;2023-08-24T08:58:10;2.50;;;2.30;;
14686;SDS011;7431;49.440;11.084;2023-08-24T09:00:39;3.05;;;2.80;;
14686;SDS011;7431;49.440;11.084;2023-08-24T09:03:06;4.40;;;2.67;;
14686;SDS011;7431;49.440;11.084;2023-08-24T09:05:32;2.50;;;2.20;;
14686;SDS011;7431;49.440;11.084;2023-08-24T09:08:10;2.60;;;2.40;;
14686;SDS011;7431;49.440;11.084;2023-08-24T09:10:36;3.83;;;2.05;;
14686;SDS011;7431;49.440;11.084;2023-08-24T09:13:02;2.90;;;2.58;;
14686;SDS011;7431;49.440;11.084;2023-08-24T09:15:32;2.65;;;2.45;;
14686;SDS011;7431;49.440;11.084;2023-08-24T09:17:59;4.28;;;2.58;;
14686;SDS011;7431;49.440;11.084;2023-08-24T09:20:27;2.17;;;1.98;;
14686;SDS011;7431;49.440;11.084;2023-08-24T09:22:54;4.97;;;2.35;;
14686;SDS011;7431;49.440;11.084;2023-08-24T09:25:22;3.90;;;2.50;;
14686;SDS011;7431;49.440;11.084;2023-08-24T09:27:57;2.38;;;2.17;;
14686;SDS011;7431;49.440;11.084;2023-08-24T09:30:28;2.35;;;2.03;;
14686;SDS011;7431;49.440;11.084;2023-08-24T09:32:54;2.92;;;2.55;;
14686;SDS011;7431;49.440;11.084;2023-08-24T09:35:20;2.20;;;2.10;;
14686;SDS011;7431;49.440;11.084;2023-08-24T09:37:46;2.53;;;2.33;;
14686;SDS011;7431;49.440;11.084;2023-08-24T09:40:15;4.00;;;2.40;;
14686;SDS011;7431;49.440;11.084;2023-08-24T09:42:41;3.28;;;2.53;;
14686;SDS011;7431;49.440;11.084;2023-08-24T09:45:08;4.32;;;2.45;;
14686;SDS011;7431;49.440;11.084;2023-08-24T09:47:35;2.85;;;2.25;;
14686;SDS011;7431;49.440;11.084;2023-08-24T09:50:02;2.60;;;2.40;;
14686;SDS011;7431;49.440;11.084;2023-08-24T09:52:31;2.85;;;2.50;;
14686;SDS011;7431;49.440;11.084;2023-08-24T09:55:02;2.42;;;2.15;;
14686;SDS011;7431;49.440;11.084;2023-08-24T09:57:33;2.53;;;2.33;;
14686;SDS011;7431;49.440;11.084;2023-08-24T10:00:03;3.45;;;2.33;;
14686;SDS011;7431;49.440;11.084;2023-08-24T10:02:34;2.85;;;2.40;;
14686;SDS011;7431;49.440;11.084;2023-08-24T10:05:02;2.83;;;2.50;;
14686;SDS011;7431;49.440;11.084;2023-08-24T10:07:28;3.13;;;2.42;;
14686;SDS011;7431;49.440;11.084;2023-08-24T10:15:16;3.60;;;2.35;;
14686;SDS011;7431;49.440;11.084;2023-08-24T10:17:45;3.10;;;2.28;;
14686;SDS011;7431;49.440;11.084;2023-08-24T10:22:49;3.90;;;2.47;;
14686;SDS011;7431;49.440;11.084;2023-08-24T10:25:16;3.45;;;2.55;;
14686;SDS011;7431;49.440;11.084;2023-08-24T10:27:43;3.60;;;2.45;;
14686;SDS011;7431;49.440;11.084;2023-08-24T10:30:12;3.05;;;2.42;;
14686;SDS011;7431;49.440;11.084;2023-08-24T10:32:41;2.75;;;2.55;;
14686;SDS011;7431;49.440;11.084;2023-08-24T10:35:08;6.57;;;2.95;;
14686;SDS011;7431;49.440;11.084;2023-08-24T10:37:35;3.08;;;2.80;;
14686;SDS011;7431;49.440;11.084;2023-08-24T10:40:01;3.13;;;2.50;;
14686;SDS011;7431;49.440;11.084;2023-08-24T10:42:33;2.83;;;2.53;;
14686;SDS011;7431;49.440;11.084;2023-08-24T10:45:08;2.63;;;2.30;;
14686;SDS011;7431;49.440;11.084;2023-08-24T10:47:34;5.38;;;2.55;;
14686;SDS011;7431;49.440;11.084;2023-08-24T10:50:10;2.53;;;2.30;;
14686;SDS011;7431;49.440;11.084;2023-08-24T10:52:37;2.50;;;2.30;;
14686;SDS011;7431;49.440;11.084;2023-08-24T10:55:04;2.72;;;2.40;;
14686;SDS011;7431;49.440;11.084;2023-08-24T10:57:37;6.30;;;2.50;;
14686;SDS011;7431;49.440;11.084;2023-08-24T11:00:08;2.97;;;2.67;;
14686;SDS011;7431;49.440;11.084;2023-08-24T11:02:50;2.92;;;2.47;;
14686;SDS011;7431;49.440;11.084;2023-08-24T11:05:23;3.00;;;2.75;;
14686;SDS011;7431;49.440;11.084;2023-08-24T11:10:19;2.50;;;2.30;;
14686;SDS011;7431;49.440;11.084;2023-08-24T11:13:03;3.03;;;2.72;;
14686;SDS011;7431;49.440;11.084;2023-08-24T11:15:30;4.10;;;2.40;;
14686;SDS011;7431;49.440;11.084;2023-08-24T11:20:44;4.03;;;2.58;;
14686;SDS011;7431;49.440;11.084;2023-08-24T11:23:11;4.70;;;2.60;;
14686;SDS011;7431;49.440;11.084;2023-08-24T11:25:37;2.60;;;2.30;;
14686;SDS011;7431;49.440;11.084;2023-08-24T11:28:03;2.70;;;2.50;;
14686;SDS011;7431;49.440;11.084;2023-08-24T11:30:33;2.90;;;2.60;;
14686;SDS011;7431;49.440;11.084;2023-08-24T11:33:00;2.92;;;2.42;;
14686;SDS011;7431;49.440;11.084;2023-08-24T11:35:26;3.20;;;2.72;;
14686;SDS011;7431;49.440;11.084;2023-08-24T11:37:55;3.72;;;2.53;;
14686;SDS011;7431;49.440;11.084;2023-08-24T11:40:22;3.50;;;2.67;;
14686;SDS011;7431;49.440;11.084;2023-08-24T11:42:55;4.25;;;2.75;;
14686;SDS011;7431;49.440;11.084;2023-08-24T11:45:21;5.32;;;2.90;;
14686;SDS011;7431;49.440;11.084;2023-08-24T11:47:48;5.70;;;2.88;;
14686;SDS011;7431;49.440;11.084;2023-08-24T11:50:14;2.80;;;2.60;;
14686;SDS011;7431;49.440;11.084;2023-08-24T11:52:40;2.92;;;2.58;;
14686;SDS011;7431;49.440;11.084;2023-08-24T11:55:06;2.50;;;2.30;;
14686;SDS011;7431;49.440;11.084;2023-08-24T11:57:34;3.47;;;2.35;;
14686;SDS011;7431;49.440;11.084;2023-08-24T12:00:00;4.50;;;2.65;;
14686;SDS011;7431;49.440;11.084;2023-08-24T12:02:26;2.80;;;2.50;;
14686;SDS011;7431;49.440;11.084;2023-08-24T12:04:53;2.35;;;2.15;;
14686;SDS011;7431;49.440;11.084;2023-08-24T12:07:22;2.40;;;2.20;;
14686;SDS011;7431;49.440;11.084;2023-08-24T12:09:49;4.60;;;2.55;;
14686;SDS011;7431;49.440;11.084;2023-08-24T12:12:18;3.45;;;2.38;;
14686;SDS011;7431;49.440;11.084;2023-08-24T12:14:46;3.35;;;2.25;;
14686;SDS011;7431;49.440;11.084;2023-08-24T12:17:12;3.28;;;2.50;;
14686;SDS011;7431;49.440;11.084;2023-08-24T12:20:16;3.10;;;2.28;;
14686;SDS011;7431;49.440;11.084;2023-08-24T12:22:31;2.97;;;2.60;;
14686;SDS011;7431;49.440;11.084;2023-08-24T12:24:57;4.68;;;2.78;;
14686;SDS011;7431;49.440;11.084;2023-08-24T12:27:24;4.43;;;2.35;;
14686;SDS011;7431;49.440;11.084;2023-08-24T12:29:53;4.65;;;2.60;;
14686;SDS011;7431;49.440;11.084;2023-08-24T12:32:19;5.13;;;2.60;;
14686;SDS011;7431;49.440;11.084;2023-08-24T12:34:48;2.70;;;2.47;;
14686;SDS011;7431;49.440;11.084;2023-08-24T12:37:14;3.45;;;2.28;;
14686;SDS011;7431;49.440;11.084;2023-08-24T12:39:40;2.67;;;2.33;;
14686;SDS011;7431;49.440;11.084;2023-08-24T12:42:06;4.22;;;2.45;;
14686;SDS011;7431;49.440;11.084;2023-08-24T12:44:32;3.65;;;2.60;;
14686;SDS011;7431;49.440;11.084;2023-08-24T12:46:58;4.10;;;2.30;;
14686;SDS011;7431;49.440;11.084;2023-08-24T12:49:24;3.40;;;2.30;;
14686;SDS011;7431;49.440;11.084;2023-08-24T12:51:50;2.78;;;2.58;;
14686;SDS011;7431;49.440;11.084;2023-08-24T12:54:16;6.10;;;3.15;;
14686;SDS011;7431;49.440;11.084;2023-08-24T12:56:42;3.20;;;2.85;;
14686;SDS011;7431;49.440;11.084;2023-08-24T12:59:08;2.58;;;2.38;;
14686;SDS011;7431;49.440;11.084;2023-08-24T13:01:35;3.78;;;2.30;;
14686;SDS011;7431;49.440;11.084;2023-08-24T13:04:01;6.70;;;2.47;;
14686;SDS011;7431;49.440;11.084;2023-08-24T13:06:27;4.45;;;2.60;;
14686;SDS011;7431;49.440;11.084;2023-08-24T13:08:53;3.70;;;2.67;;
14686;SDS011;7431;49.440;11.084;2023-08-24T13:11:21;2.42;;;2.22;;
14686;SDS011;7431;49.440;11.084;2023-08-24T13:13:51;4.35;;;2.60;;
14686;SDS011;7431;49.440;11.084;2023-08-24T13:16:27;3.45;;;2.58;;
14686;SDS011;7431;49.440;11.084;2023-08-24T13:18:56;2.45;;;2.25;;
14686;SDS011;7431;49.440;11.084;2023-08-24T13:21:25;4.90;;;2.97;;
14686;SDS011;7431;49.440;11.084;2023-08-24T13:23:51;2.70;;;2.50;;
14686;SDS011;7431;49.440;11.084;2023-08-24T13:26:18;2.72;;;2.53;;
14686;SDS011;7431;49.440;11.084;2023-08-24T13:28:44;2.65;;;2.45;;
14686;SDS011;7431;49.440;11.084;2023-08-24T13:31:10;3.08;;;2.53;;
14686;SDS011;7431;49.440;11.084;2023-08-24T13:33:36;3.55;;;2.60;;
14686;SDS011;7431;49.440;11.084;2023-08-24T13:36:02;3.58;;;2.90;;
14686;SDS011;7431;49.440;11.084;2023-08-24T13:38:29;3.55;;;2.92;;
14686;SDS011;7431;49.440;11.084;2023-08-24T13:40:55;3.55;;;2.72;;
14686;SDS011;7431;49.440;11.084;2023-08-24T13:43:21;3.60;;;2.70;;
14686;SDS011;7431;49.440;11.084;2023-08-24T13:45:47;2.83;;;2.63;;
14686;SDS011;7431;49.440;11.084;2023-08-24T13:48:19;4.18;;;2.45;;
14686;SDS011;7431;49.440;11.084;2023-08-24T13:50:49;4.03;;;2.50;;
14686;SDS011;7431;49.440;11.084;2023-08-24T13:53:36;3.63;;;3.17;;
14686;SDS011;7431;49.440;11.084;2023-08-24T13:56:02;4.78;;;2.58;;
14686;SDS011;7431;49.440;11.084;2023-08-24T13:58:28;3.15;;;2.85;;
14686;SDS011;7431;49.440;11.084;2023-08-24T14:00:54;2.83;;;2.58;;
14686;SDS011;7431;49.440;11.084;2023-08-24T14:03:21;3.33;;;2.80;;
14686;SDS011;7431;49.440;11.084;2023-08-24T14:05:47;3.20;;;2.88;;
14686;SDS011;7431;49.440;11.084;2023-08-24T14:08:15;3.05;;;2.85;;
14686;SDS011;7431;49.440;11.084;2023-08-24T14:10:40;6.57;;;2.60;;
14686;SDS011;7431;49.440;11.084;2023-08-24T14:13:06;6.03;;;2.72;;
14686;SDS011;7431;49.440;11.084;2023-08-24T14:15:32;5.35;;;2.55;;
14686;SDS011;7431;49.440;11.084;2023-08-24T14:17:58;2.78;;;2.58;;
14686;SDS011;7431;49.440;11.084;2023-08-24T14:20:24;2.55;;;2.35;;
14686;SDS011;7431;49.440;11.084;2023-08-24T14:22:50;3.53;;;2.70;;
14686;SDS011;7431;49.440;11.084;2023-08-24T14:25:16;3.08;;;2.50;;
14686;SDS011;7431;49.440;11.084;2023-08-24T14:27:42;4.22;;;2.70;;
14686;SDS011;7431;49.440;11.084;2023-08-24T14:30:08;3.58;;;2.70;;
14686;SDS011;7431;49.440;11.084;2023-08-24T14:32:35;3.45;;;2.35;;
14686;SDS011;7431;49.440;11.084;2023-08-24T14:35:01;3.80;;;2.53;;
14686;SDS011;7431;49.440;11.084;2023-08-24T14:37:28;4.00;;;2.30;;
14686;SDS011;7431;49.440;11.084;2023-08-24T14:39:55;4.60;;;2.70;;
14686;SDS011;7431;49.440;11.084;2023-08-24T14:42:21;4.65;;;2.60;;
14686;SDS011;7431;49.440;11.084;2023-08-24T14:44:47;2.30;;;2.10;;
14686;SDS011;7431;49.440;11.084;2023-08-24T14:47:13;5.95;;;2.92;;
14686;SDS011;7431;49.440;11.084;2023-08-24T14:49:39;3.65;;;2.78;;
14686;SDS011;7431;49.440;11.084;2023-08-24T14:52:05;5.75;;;2.75;;
14686;SDS011;7431;49.440;11.084;2023-08-24T14:54:31;3.55;;;2.70;;
14686;SDS011;7431;49.440;11.084;2023-08-24T14:56:57;3.38;;;3.00;;
14686;SDS011;7431;49.440;11.084;2023-08-24T14:59:25;3.65;;;2.90;;
14686;SDS011;7431;49.440;11.084;2023-08-24T15:01:51;6.85;;;2.80;;